createdAt,value
2019-02-21T00:02:10.106Z,10.57
2019-02-21T00:04:38.699Z,11.27
2019-02-21T00:07:07.256Z,11.10
2019-02-21T00:09:35.834Z,10.43
2019-02-21T00:12:04.318Z,11.20
2019-02-21T00:14:32.982Z,11.20
2019-02-21T00:17:01.476Z,11.03
2019-02-21T00:19:30.027Z,11.53
2019-02-21T00:21:58.606Z,11.37
2019-02-21T00:24:27.202Z,10.83
2019-02-21T00:26:55.778Z,11.00
2019-02-21T00:29:24.334Z,11.83
2019-02-21T00:31:52.994Z,11.60
2019-02-21T00:34:21.559Z,11.00
2019-02-21T00:36:50.151Z,11.47
2019-02-21T00:39:18.706Z,11.27
2019-02-21T00:41:47.290Z,10.20
2019-02-21T00:44:16.140Z,11.30
2019-02-21T00:46:44.658Z,11.43
2019-02-21T00:49:13.211Z,11.40
2019-02-21T00:51:41.792Z,10.90
2019-02-21T00:54:10.346Z,11.37
2019-02-21T00:56:38.924Z,11.07
2019-02-21T00:59:07.410Z,10.10
2019-02-21T01:01:35.927Z,9.77
2019-02-21T01:04:04.492Z,10.27
2019-02-21T01:06:33.114Z,10.20
2019-02-21T01:09:01.683Z,10.17
2019-02-21T01:11:30.199Z,10.50
2019-02-21T01:13:58.831Z,10.57
2019-02-21T01:16:27.409Z,11.10
2019-02-21T01:18:55.974Z,11.73
2019-02-21T01:21:24.560Z,11.90
2019-02-21T01:23:53.115Z,11.57
2019-02-21T01:26:21.703Z,11.40
2019-02-21T01:28:50.325Z,11.80
2019-02-21T01:31:18.837Z,11.60
2019-02-21T01:33:47.386Z,11.70
2019-02-21T01:36:15.982Z,12.13
2019-02-21T01:38:44.464Z,11.23
2019-02-21T01:41:13.025Z,11.33
2019-02-21T01:43:41.610Z,11.63
2019-02-21T01:46:10.106Z,11.80
2019-02-21T01:48:38.701Z,12.00
2019-02-21T01:51:07.255Z,11.83
2019-02-21T01:53:35.848Z,12.53
2019-02-21T01:56:04.430Z,11.47
2019-02-21T01:58:32.954Z,12.50
2019-02-21T02:01:08.642Z,11.83
2019-02-21T02:03:31.807Z,11.57
2019-02-21T02:06:00.297Z,11.97
2019-02-21T02:08:28.807Z,11.50
2019-02-21T02:10:57.282Z,11.87
2019-02-21T02:13:25.794Z,12.13
2019-02-21T02:15:54.359Z,12.07
2019-02-21T02:18:22.947Z,12.13
2019-02-21T02:20:51.599Z,12.07
2019-02-21T02:23:20.186Z,11.87
2019-02-21T02:25:48.662Z,12.13
2019-02-21T02:28:17.253Z,11.93
2019-02-21T02:30:45.807Z,12.60
2019-02-21T02:33:14.467Z,12.60
2019-02-21T02:35:43.028Z,12.23
2019-02-21T02:38:11.615Z,11.90
2019-02-21T02:40:40.176Z,11.73
2019-02-21T02:43:08.760Z,12.30
2019-02-21T02:45:37.316Z,11.63
2019-02-21T02:48:05.903Z,11.47
2019-02-21T02:50:34.382Z,11.77
2019-02-21T02:53:02.971Z,11.97
2019-02-21T02:55:31.465Z,11.83
2019-02-21T02:58:00.013Z,11.50
2019-02-21T03:00:28.600Z,12.20
2019-02-21T03:02:57.153Z,11.10
2019-02-21T03:05:25.734Z,11.00
2019-02-21T03:07:54.387Z,11.27
2019-02-21T03:10:23.019Z,11.37
2019-02-21T03:12:51.503Z,11.03
2019-02-21T03:15:20.148Z,10.70
2019-02-21T03:17:48.707Z,11.77
2019-02-21T03:20:17.305Z,11.10
2019-02-21T03:22:45.848Z,11.07
2019-02-21T03:25:14.482Z,11.53
2019-02-21T03:27:43.066Z,11.37
2019-02-21T03:30:12.850Z,11.00
2019-02-21T03:32:41.682Z,11.67
2019-02-21T03:35:10.406Z,11.37
2019-02-21T03:37:39.005Z,12.17
2019-02-21T03:40:09.491Z,11.33
2019-02-21T03:42:38.047Z,11.23
2019-02-21T03:45:25.903Z,11.90
2019-02-21T03:47:54.460Z,11.33
2019-02-21T03:50:23.047Z,11.70
2019-02-21T03:52:51.598Z,11.20
2019-02-21T03:55:20.190Z,11.80
2019-02-21T03:57:48.755Z,11.63
2019-02-21T04:00:17.337Z,11.80
2019-02-21T04:02:45.833Z,12.37
2019-02-21T04:05:14.399Z,10.70
2019-02-21T04:07:42.955Z,11.70
2019-02-21T04:10:11.708Z,11.33
2019-02-21T04:12:40.283Z,12.27
2019-02-21T04:15:11.444Z,10.73
2019-02-21T04:17:39.994Z,12.00
2019-02-21T04:20:09.720Z,11.27
2019-02-21T04:22:38.277Z,11.27
2019-02-21T04:25:07.405Z,11.07
2019-02-21T04:27:35.955Z,11.47
2019-02-21T04:30:04.988Z,11.47
2019-02-21T04:32:33.616Z,11.67
2019-02-21T04:35:02.201Z,10.80
2019-02-21T04:37:30.678Z,11.30
2019-02-21T04:39:59.189Z,11.03
2019-02-21T04:42:27.742Z,10.93
2019-02-21T04:44:56.347Z,11.33
2019-02-21T04:47:24.896Z,11.53
2019-02-21T04:49:53.473Z,12.10
2019-02-21T04:52:21.951Z,10.93
2019-02-21T04:54:50.618Z,11.37
2019-02-21T04:57:19.154Z,11.17
2019-02-21T04:59:47.668Z,11.30
2019-02-21T05:02:16.146Z,11.40
2019-02-21T05:04:44.659Z,11.63
2019-02-21T05:07:13.279Z,12.10
2019-02-21T05:09:41.862Z,12.10
2019-02-21T05:12:10.348Z,13.17
2019-02-21T05:14:38.929Z,13.77
2019-02-21T05:17:07.491Z,12.20
2019-02-21T05:19:36.072Z,13.00
2019-02-21T05:22:04.561Z,12.43
2019-02-21T05:24:33.152Z,12.67
2019-02-21T05:27:08.807Z,11.80
2019-02-21T05:29:37.388Z,12.50
2019-02-21T05:32:07.623Z,11.53
2019-02-21T05:34:43.779Z,11.53
2019-02-21T05:37:13.897Z,11.40
2019-02-21T05:39:47.005Z,11.47
2019-02-21T05:42:30.047Z,11.60
2019-02-21T05:45:00.491Z,12.07
2019-02-21T05:47:42.780Z,11.87
2019-02-21T05:50:15.517Z,12.13
2019-02-21T05:52:45.640Z,11.33
2019-02-21T05:55:24.960Z,11.93
2019-02-21T05:57:55.160Z,11.67
2019-02-21T06:00:37.654Z,12.47
2019-02-21T06:03:10.691Z,10.47
2019-02-21T06:05:55.885Z,11.10
2019-02-21T06:08:44.131Z,10.90
2019-02-21T06:11:13.910Z,11.17
2019-02-21T06:14:00.570Z,11.73
2019-02-21T06:16:33.518Z,11.57
2019-02-21T06:19:19.895Z,11.93
2019-02-21T06:21:50.929Z,11.07
2019-02-21T06:24:27.312Z,11.77
2019-02-21T06:26:57.553Z,12.17
2019-02-21T06:29:27.759Z,11.30
2019-02-21T06:31:56.315Z,11.63
2019-02-21T06:34:24.905Z,12.13
2019-02-21T06:36:53.467Z,11.90
2019-02-21T06:39:22.128Z,11.43
2019-02-21T06:41:59.104Z,11.47
2019-02-21T06:44:20.930Z,12.33
2019-02-21T06:46:49.469Z,12.20
2019-02-21T06:49:18.001Z,12.73
2019-02-21T06:51:46.559Z,10.77
2019-02-21T06:54:15.116Z,12.00
2019-02-21T06:56:43.705Z,12.30
2019-02-21T06:59:12.271Z,11.43
2019-02-21T07:01:40.877Z,11.30
2019-02-21T07:04:09.437Z,11.90
2019-02-21T07:06:39.297Z,11.37
2019-02-21T07:09:07.983Z,12.30
2019-02-21T07:11:36.688Z,12.27
2019-02-21T07:14:05.248Z,12.60
2019-02-21T07:16:33.760Z,12.67
2019-02-21T07:19:02.314Z,12.13
2019-02-21T07:21:30.907Z,12.13
2019-02-21T07:23:59.505Z,12.93
2019-02-21T07:26:28.057Z,13.50
2019-02-21T07:28:58.309Z,12.53
2019-02-21T07:31:29.064Z,13.03
2019-02-21T07:33:57.060Z,13.03
2019-02-21T07:36:25.637Z,12.53
2019-02-21T07:39:08.369Z,12.77
2019-02-21T07:41:24.364Z,13.20
2019-02-21T07:43:52.925Z,12.73
2019-02-21T07:46:21.519Z,12.40
2019-02-21T07:48:50.078Z,13.37
2019-02-21T07:51:18.709Z,13.33
2019-02-21T07:53:47.265Z,12.73
2019-02-21T07:56:15.854Z,13.00
2019-02-21T07:58:44.414Z,13.33
2019-02-21T08:01:13.113Z,12.73
2019-02-21T08:03:45.948Z,14.10
2019-02-21T08:06:11.909Z,12.63
2019-02-21T08:08:40.469Z,13.03
2019-02-21T08:11:09.507Z,13.80
2019-02-21T08:13:38.072Z,13.63
2019-02-21T08:16:06.730Z,13.43
2019-02-21T08:18:35.345Z,14.43
2019-02-21T08:21:03.934Z,13.37
2019-02-21T08:23:32.635Z,14.20
2019-02-21T08:26:01.252Z,13.70
2019-02-21T08:28:29.807Z,14.67
2019-02-21T08:30:58.413Z,14.87
2019-02-21T08:33:34.631Z,14.83
2019-02-21T08:36:03.212Z,13.80
2019-02-21T08:38:31.772Z,15.30
2019-02-21T08:41:00.383Z,14.70
2019-02-21T08:43:28.999Z,14.23
2019-02-21T08:45:57.738Z,16.70
2019-02-21T08:48:26.511Z,15.07
2019-02-21T08:50:55.103Z,16.93
2019-02-21T08:53:23.659Z,16.57
2019-02-21T08:55:52.248Z,19.30
2019-02-21T08:58:20.807Z,18.13
2019-02-21T09:00:49.412Z,18.23
2019-02-21T09:03:18.233Z,18.40
2019-02-21T09:05:46.857Z,18.13
2019-02-21T09:08:16.732Z,18.27
2019-02-21T09:10:45.511Z,18.50
2019-02-21T09:13:14.144Z,17.93
2019-02-21T09:15:42.811Z,17.50
2019-02-21T09:18:11.477Z,18.30
2019-02-21T09:20:40.143Z,18.67
2019-02-21T09:23:08.711Z,18.27
2019-02-21T09:25:37.303Z,17.90
2019-02-21T09:28:05.865Z,18.57
2019-02-21T09:30:34.465Z,17.93
2019-02-21T09:33:03.029Z,17.67
2019-02-21T09:35:31.789Z,19.80
2019-02-21T09:38:00.351Z,19.23
2019-02-21T09:40:29.016Z,18.37
2019-02-21T09:42:57.571Z,18.13
2019-02-21T09:45:26.497Z,19.23
2019-02-21T09:47:54.991Z,19.20
2019-02-21T09:50:23.587Z,18.57
2019-02-21T09:52:52.155Z,18.57
2019-02-21T09:55:20.785Z,18.47
2019-02-21T09:57:49.443Z,19.10
2019-02-21T10:00:20.443Z,19.07
2019-02-21T10:02:49.101Z,18.87
2019-02-21T10:05:17.738Z,18.73
2019-02-21T10:07:46.331Z,19.90
2019-02-21T10:10:20.717Z,19.27
2019-02-21T10:12:49.299Z,18.90
2019-02-21T10:15:17.857Z,18.80
2019-02-21T10:17:46.463Z,19.33
2019-02-21T10:20:20.355Z,19.37
2019-02-21T10:22:48.942Z,18.10
2019-02-21T10:25:22.918Z,19.43
2019-02-21T10:27:50.822Z,18.77
2019-02-21T10:30:21.334Z,18.57
2019-02-21T10:32:50.062Z,16.50
2019-02-21T10:35:18.685Z,18.23
2019-02-21T10:37:47.213Z,17.73
2019-02-21T10:40:16.630Z,17.33
2019-02-21T10:42:45.249Z,16.97
2019-02-21T10:45:19.095Z,18.00
2019-02-21T10:47:47.665Z,17.57
2019-02-21T10:50:20.245Z,17.27
2019-02-21T10:52:49.285Z,17.57
2019-02-21T10:55:18.478Z,17.50
2019-02-21T10:57:47.138Z,17.20
2019-02-21T11:00:27.003Z,18.27
2019-02-21T11:02:55.673Z,18.60
2019-02-21T11:05:24.353Z,19.20
2019-02-21T11:07:52.981Z,19.07
2019-02-21T11:10:28.883Z,19.57
2019-02-21T11:12:57.547Z,19.33
2019-02-21T11:15:26.546Z,19.40
2019-02-21T11:17:55.312Z,20.70
2019-02-21T11:20:24.129Z,20.20
2019-02-21T11:22:52.782Z,19.97
2019-02-21T11:25:21.310Z,19.60
2019-02-21T11:27:50.873Z,18.90
2019-02-21T11:30:20.693Z,17.90
2019-02-21T11:32:49.541Z,19.13
2019-02-21T11:35:18.252Z,17.63
2019-02-21T11:37:47.596Z,18.17
2019-02-21T11:40:17.730Z,18.37
2019-02-21T11:42:46.562Z,18.63
2019-02-21T11:45:16.563Z,18.37
2019-02-21T11:47:45.161Z,17.80
2019-02-21T11:50:16.057Z,18.53
2019-02-21T11:52:44.647Z,19.63
2019-02-21T11:55:21.582Z,19.33
2019-02-21T11:57:50.247Z,19.30
2019-02-21T12:00:21.514Z,19.70
2019-02-21T12:02:50.174Z,18.67
2019-02-21T12:05:30.216Z,17.57
2019-02-21T12:07:49.113Z,17.43
2019-02-21T12:10:17.687Z,18.07
2019-02-21T12:12:46.265Z,17.43
2019-02-21T12:15:15.977Z,17.97
2019-02-21T12:17:44.636Z,17.50
2019-02-21T12:20:15.401Z,17.73
2019-02-21T12:22:43.925Z,17.63
2019-02-21T12:25:18.176Z,16.53
2019-02-21T12:27:46.757Z,17.67
2019-02-21T12:30:17.367Z,17.13
2019-02-21T12:32:46.227Z,17.53
2019-02-21T12:35:14.926Z,16.40
2019-02-21T12:37:43.651Z,16.23
2019-02-21T12:40:19.778Z,16.33
2019-02-21T12:42:48.395Z,16.30
2019-02-21T12:45:22.383Z,15.40
2019-02-21T12:47:53.710Z,16.33
2019-02-21T12:50:21.182Z,14.90
2019-02-21T12:52:49.773Z,15.23
2019-02-21T12:55:27.294Z,15.77
2019-02-21T12:57:48.565Z,14.63
2019-02-21T13:00:21.550Z,15.43
2019-02-21T13:02:50.212Z,15.40
2019-02-21T13:05:18.778Z,14.37
2019-02-21T13:07:47.373Z,14.90
2019-02-21T13:10:21.013Z,14.47
2019-02-21T13:12:49.609Z,14.63
2019-02-21T13:15:18.240Z,14.40
2019-02-21T13:17:46.832Z,14.40
2019-02-21T13:20:15.746Z,14.10
2019-02-21T13:22:44.600Z,13.97
2019-02-21T13:25:18.009Z,14.00
2019-02-21T13:27:46.583Z,13.80
2019-02-21T13:30:16.736Z,13.83
2019-02-21T13:32:45.606Z,14.23
2019-02-21T13:35:14.722Z,13.23
2019-02-21T13:37:43.441Z,13.97
2019-02-21T13:40:16.889Z,13.37
2019-02-21T13:42:45.549Z,12.50
2019-02-21T13:45:18.154Z,12.97
2019-02-21T13:47:46.813Z,13.10
2019-02-21T13:50:23.666Z,12.00
2019-02-21T13:52:51.794Z,12.47
2019-02-21T13:55:20.297Z,12.53
2019-02-21T13:57:48.971Z,12.67
2019-02-21T14:00:24.322Z,13.30
2019-02-21T14:02:52.927Z,12.77
2019-02-21T14:05:21.477Z,13.43
2019-02-21T14:07:50.062Z,12.77
2019-02-21T14:10:18.727Z,12.57
2019-02-21T14:12:47.326Z,12.47
2019-02-21T14:15:22.051Z,12.97
2019-02-21T14:17:50.652Z,11.73
2019-02-21T14:20:19.215Z,12.17
2019-02-21T14:22:47.805Z,11.77
2019-02-21T14:25:16.385Z,12.70
2019-02-21T14:27:44.979Z,13.03
2019-02-21T14:30:18.494Z,13.40
2019-02-21T14:32:47.084Z,13.07
2019-02-21T14:35:16.256Z,13.37
2019-02-21T14:37:44.990Z,13.53
2019-02-21T14:40:15.148Z,13.50
2019-02-21T14:42:43.798Z,14.13
2019-02-21T14:45:17.755Z,14.43
2019-02-21T14:47:46.419Z,16.53
2019-02-21T14:50:15.049Z,15.73
2019-02-21T14:52:43.740Z,20.00
2019-02-21T14:55:17.338Z,16.90
2019-02-21T14:57:46.027Z,19.73
2019-02-21T15:00:22.750Z,15.90
2019-02-21T15:02:51.349Z,16.20
2019-02-21T15:05:20.252Z,16.10
2019-02-21T15:07:48.899Z,16.43
2019-02-21T15:10:17.810Z,15.17
2019-02-21T15:12:46.437Z,15.93
2019-02-21T15:15:17.674Z,16.23
2019-02-21T15:17:46.269Z,15.37
2019-02-21T15:20:16.269Z,16.53
2019-02-21T15:22:44.859Z,15.80
2019-02-21T15:25:13.501Z,16.87
2019-02-21T15:27:42.221Z,16.20
2019-02-21T15:30:13.638Z,16.07
2019-02-21T15:32:44.797Z,16.53
2019-02-21T15:35:12.442Z,16.20
2019-02-21T15:37:41.022Z,16.37
2019-02-21T15:40:10.151Z,16.57
2019-02-21T15:42:38.813Z,17.07
2019-02-21T15:45:22.239Z,17.13
2019-02-21T15:47:43.596Z,24.90
2019-02-21T15:50:13.901Z,16.73
2019-02-21T15:52:43.626Z,16.53
2019-02-21T15:55:17.055Z,16.43
2019-02-21T15:57:45.710Z,16.50
2019-02-21T16:00:21.982Z,16.97
2019-02-21T16:02:50.775Z,16.53
2019-02-21T16:05:19.312Z,17.37
2019-02-21T16:07:47.899Z,16.87
2019-02-21T16:10:27.110Z,16.67
2019-02-21T16:12:56.561Z,17.20
2019-02-21T16:15:25.512Z,17.47
2019-02-21T16:17:55.911Z,17.27
2019-02-21T16:20:24.543Z,17.53
2019-02-21T16:22:53.057Z,16.77
2019-02-21T16:25:27.313Z,16.93
2019-02-21T16:27:55.929Z,17.20
2019-02-21T16:30:24.534Z,16.43
2019-02-21T16:32:53.128Z,17.60
2019-02-21T16:35:21.683Z,17.23
2019-02-21T16:37:50.275Z,18.00
2019-02-21T16:40:20.560Z,18.57
2019-02-21T16:42:49.226Z,19.73
2019-02-21T16:45:20.871Z,19.60
2019-02-21T16:47:49.467Z,18.47
2019-02-21T16:50:28.753Z,18.73
2019-02-21T16:52:48.335Z,17.63
2019-02-21T16:55:19.206Z,16.67
2019-02-21T16:57:47.806Z,16.90
2019-02-21T17:00:20.840Z,17.47
2019-02-21T17:02:49.577Z,16.63
2019-02-21T17:05:18.062Z,17.20
2019-02-21T17:07:46.554Z,15.97
2019-02-21T17:10:16.958Z,16.83
2019-02-21T17:12:45.678Z,15.93
2019-02-21T17:15:15.912Z,15.83
2019-02-21T17:17:44.474Z,16.67
2019-02-21T17:20:15.298Z,18.27
2019-02-21T17:22:43.926Z,17.37
2019-02-21T17:25:14.461Z,16.63
2019-02-21T17:27:43.551Z,16.43
2019-02-21T17:30:14.558Z,16.23
2019-02-21T17:32:43.138Z,16.50
2019-02-21T17:35:11.889Z,16.03
2019-02-21T17:37:40.447Z,15.90
2019-02-21T17:40:12.252Z,16.60
2019-02-21T17:42:40.819Z,16.03
2019-02-21T17:45:10.448Z,15.83
2019-02-21T17:47:39.005Z,16.07
2019-02-21T17:50:11.014Z,15.50
2019-02-21T17:52:39.687Z,15.43
2019-02-21T17:55:10.113Z,15.37
2019-02-21T17:57:38.602Z,14.70
2019-02-21T18:00:13.133Z,14.93
2019-02-21T18:02:41.682Z,16.53
2019-02-21T18:05:10.939Z,15.27
2019-02-21T18:07:39.536Z,14.20
2019-02-21T18:10:28.992Z,13.97
2019-02-21T18:12:57.568Z,14.00
2019-02-21T18:15:26.505Z,14.17
2019-02-21T18:17:55.192Z,15.50
2019-02-21T18:20:23.858Z,16.27
2019-02-21T18:22:52.672Z,13.87
2019-02-21T18:25:24.424Z,13.97
2019-02-21T18:27:53.024Z,14.33
2019-02-21T18:30:21.631Z,14.93
2019-02-21T18:32:50.267Z,14.57
2019-02-21T18:35:18.934Z,14.43
2019-02-21T18:37:48.011Z,15.37
2019-02-21T18:40:24.428Z,15.00
2019-02-21T18:42:53.004Z,14.50
2019-02-21T18:45:21.736Z,16.23
2019-02-21T18:47:50.321Z,17.67
2019-02-21T18:50:18.910Z,16.60
2019-02-21T18:52:47.707Z,17.23
2019-02-21T18:55:16.220Z,17.50
2019-02-21T18:57:44.836Z,17.23
2019-02-21T19:00:22.331Z,17.90
2019-02-21T19:02:51.004Z,17.43
2019-02-21T19:05:20.313Z,16.97
2019-02-21T19:07:58.840Z,18.13
2019-02-21T19:10:38.588Z,16.83
2019-02-21T19:13:07.889Z,18.00
2019-02-21T19:15:36.756Z,18.73
2019-02-21T19:18:05.484Z,18.43
2019-02-21T19:20:34.230Z,18.97
2019-02-21T19:23:02.833Z,18.37
2019-02-21T19:25:32.029Z,18.50
2019-02-21T19:28:00.632Z,18.07
2019-02-21T19:30:32.197Z,19.57
2019-02-21T19:33:00.934Z,19.03
2019-02-21T19:35:29.515Z,18.90
2019-02-21T19:38:09.520Z,19.17
2019-02-21T19:40:28.556Z,18.97
2019-02-21T19:42:57.298Z,19.60
2019-02-21T19:45:25.936Z,19.27
2019-02-21T19:47:54.620Z,18.47
2019-02-21T19:50:23.326Z,19.20
2019-02-21T19:52:52.111Z,18.53
2019-02-21T19:55:20.748Z,19.83
2019-02-21T19:57:49.424Z,19.30
2019-02-21T20:00:22.571Z,19.47
2019-02-21T20:02:51.162Z,19.23
2019-02-21T20:05:19.808Z,19.10
2019-02-21T20:07:48.412Z,20.07
2019-02-21T20:10:17.052Z,20.20
2019-02-21T20:12:45.635Z,19.70
2019-02-21T20:15:14.566Z,20.23
2019-02-21T20:17:43.227Z,19.90
2019-02-21T20:20:23.816Z,21.57
2019-02-21T20:22:52.434Z,21.37
2019-02-21T20:25:20.992Z,22.37
2019-02-21T20:27:49.837Z,22.43
2019-02-21T20:30:19.640Z,22.13
2019-02-21T20:32:48.380Z,21.67
2019-02-21T20:35:17.016Z,21.47
2019-02-21T20:37:45.613Z,21.70
2019-02-21T20:40:14.505Z,22.53
2019-02-21T20:42:43.001Z,22.63
2019-02-21T20:45:13.130Z,23.40
2019-02-21T20:47:41.790Z,22.03
2019-02-21T20:50:11.933Z,23.20
2019-02-21T20:52:40.822Z,23.77
2019-02-21T20:55:11.191Z,24.57
2019-02-21T20:57:39.866Z,24.30
2019-02-21T21:00:13.848Z,24.30
2019-02-21T21:02:42.498Z,24.27
2019-02-21T21:05:11.489Z,24.47
2019-02-21T21:07:40.128Z,26.77
2019-02-21T21:10:12.346Z,26.47
2019-02-21T21:12:40.970Z,26.37
2019-02-21T21:15:11.406Z,26.07
2019-02-21T21:17:40.116Z,26.23
2019-02-21T21:20:16.646Z,26.23
2019-02-21T21:22:40.983Z,27.20
2019-02-21T21:25:17.760Z,26.00
2019-02-21T21:27:46.336Z,27.13
2019-02-21T21:30:16.211Z,28.87
2019-02-21T21:32:44.912Z,29.93
2019-02-21T21:35:13.704Z,28.90
2019-02-21T21:37:42.270Z,29.53
2019-02-21T21:40:13.592Z,28.90
2019-02-21T21:42:42.238Z,29.77
2019-02-21T21:45:13.474Z,29.00
2019-02-21T21:47:42.180Z,29.40
2019-02-21T21:50:13.327Z,30.03
2019-02-21T21:52:41.890Z,31.27
2019-02-21T21:55:10.652Z,31.83
2019-02-21T21:57:39.288Z,32.07
2019-02-21T22:00:19.853Z,32.33
2019-02-21T22:02:48.485Z,30.87
2019-02-21T22:05:17.242Z,34.70
2019-02-21T22:07:45.825Z,33.67
2019-02-21T22:10:15.559Z,32.33
2019-02-21T22:12:44.140Z,33.87
2019-02-21T22:15:36.950Z,32.87
2019-02-21T22:18:07.718Z,32.80
2019-02-21T22:20:36.062Z,33.23
2019-02-21T22:23:04.660Z,35.37
2019-02-21T22:25:33.264Z,35.50
2019-02-21T22:28:01.826Z,35.73
2019-02-21T22:30:30.394Z,36.37
2019-02-21T22:32:58.990Z,36.47
2019-02-21T22:35:27.569Z,38.00
2019-02-21T22:37:56.175Z,37.33
2019-02-21T22:40:24.746Z,37.83
2019-02-21T22:42:53.355Z,37.83
2019-02-21T22:45:22.016Z,38.93
2019-02-21T22:47:50.738Z,39.70
2019-02-21T22:50:20.930Z,40.00
2019-02-21T22:52:49.598Z,40.23
2019-02-21T22:55:37.983Z,42.30
2019-02-21T22:58:06.648Z,40.83
2019-02-21T23:00:54.482Z,40.37
2019-02-21T23:03:25.771Z,38.57
2019-02-21T23:06:14.082Z,40.10
2019-02-21T23:08:45.052Z,38.73
2019-02-21T23:11:14.058Z,40.90
2019-02-21T23:13:42.656Z,40.70
2019-02-21T23:16:11.310Z,41.57
2019-02-21T23:18:39.924Z,41.87
2019-02-21T23:21:08.480Z,40.70
2019-02-21T23:23:37.145Z,41.03
2019-02-21T23:26:05.712Z,41.70
2019-02-21T23:28:34.298Z,41.20
2019-02-21T23:31:02.852Z,40.47
2019-02-21T23:33:33.103Z,42.90
2019-02-21T23:36:01.662Z,42.20
2019-02-21T23:38:30.400Z,40.83
2019-02-21T23:40:58.964Z,41.50
2019-02-21T23:43:27.588Z,43.43
2019-02-21T23:45:56.164Z,44.70
2019-02-21T23:48:24.758Z,42.37
2019-02-21T23:50:53.328Z,45.80
2019-02-21T23:53:21.927Z,44.63
2019-02-21T23:55:50.494Z,43.33
2019-02-21T23:58:19.100Z,44.67
